createdAt,value
2018-02-12T00:02:00.272Z,99457.89
2018-02-12T00:04:27.733Z,99455.11
2018-02-12T00:06:55.168Z,99456.84
2018-02-12T00:09:22.605Z,99455.15
2018-02-12T00:11:50.046Z,99465.96
2018-02-12T00:14:17.505Z,99469.86
2018-02-12T00:16:44.948Z,99470.18
2018-02-12T00:19:12.373Z,99471.77
2018-02-12T00:21:39.799Z,99477.03
2018-02-12T00:24:07.220Z,99476.48
2018-02-12T00:29:08.370Z,99476.39
2018-02-12T00:31:35.779Z,99477.13
2018-02-12T00:34:03.222Z,99480.91
2018-02-12T00:36:30.665Z,99487.39
2018-02-12T00:38:58.089Z,99485.70
2018-02-12T00:41:25.511Z,99486.31
2018-02-12T00:43:52.955Z,99488.34
2018-02-12T00:46:20.400Z,99487.98
2018-02-12T00:48:47.883Z,99490.74
2018-02-12T00:51:15.293Z,99495.52
2018-02-12T00:53:42.738Z,99492.31
2018-02-12T00:56:10.165Z,99491.41
2018-02-12T00:58:37.580Z,99491.73
2018-02-12T01:01:05.010Z,99501.05
2018-02-12T01:03:32.424Z,99498.14
2018-02-12T01:05:59.836Z,99500.94
2018-02-12T01:08:27.260Z,99499.05
2018-02-12T01:10:54.675Z,99511.56
2018-02-12T01:13:22.100Z,99516.17
2018-02-12T01:15:49.519Z,99517.09
2018-02-12T01:18:16.952Z,99511.88
2018-02-12T01:20:44.409Z,99522.50
2018-02-12T01:23:11.821Z,99516.81
2018-02-12T01:25:39.255Z,99523.30
2018-02-12T01:28:06.693Z,99527.34
2018-02-12T01:30:34.136Z,99534.61
2018-02-12T01:33:01.588Z,99529.50
2018-02-12T01:35:29.001Z,99533.67
2018-02-12T01:37:56.434Z,99539.66
2018-02-12T01:40:23.912Z,99539.34
2018-02-12T01:42:51.342Z,99539.05
2018-02-12T01:45:18.774Z,99540.03
2018-02-12T01:47:46.188Z,99542.86
2018-02-12T01:50:19.416Z,99545.06
2018-02-12T01:52:46.869Z,99551.45
2018-02-12T01:55:14.364Z,99546.34
2018-02-12T01:57:41.800Z,99557.77
2018-02-12T02:00:09.254Z,99559.08
2018-02-12T02:02:36.670Z,99554.24
2018-02-12T02:05:04.092Z,99556.50
2018-02-12T02:07:31.514Z,99563.19
2018-02-12T02:09:58.951Z,99559.13
2018-02-12T02:12:26.372Z,99556.43
2018-02-12T02:14:53.831Z,99559.89
2018-02-12T02:17:21.280Z,99560.02
2018-02-12T02:19:48.690Z,99573.10
2018-02-12T02:22:16.138Z,99576.88
2018-02-12T02:24:43.571Z,99577.84
2018-02-12T02:27:11.053Z,99570.91
2018-02-12T02:29:38.501Z,99566.84
2018-02-12T02:32:05.942Z,99574.06
2018-02-12T02:34:33.372Z,99574.70
2018-02-12T02:37:00.837Z,99576.22
2018-02-12T02:39:28.267Z,99580.31
2018-02-12T02:41:55.682Z,99583.44
2018-02-12T02:44:23.122Z,99581.49
2018-02-12T02:46:50.548Z,99581.38
2018-02-12T02:49:17.964Z,99572.17
2018-02-12T02:51:45.434Z,99581.89
2018-02-12T02:54:12.935Z,99576.91
2018-02-12T02:56:40.346Z,99577.27
2018-02-12T02:59:07.764Z,99584.05
2018-02-12T03:01:35.192Z,99584.84
2018-02-12T03:04:02.669Z,99585.09
2018-02-12T03:06:30.105Z,99594.14
2018-02-12T03:08:57.539Z,99591.59
2018-02-12T03:11:25.016Z,99591.49
2018-02-12T03:13:52.421Z,99596.24
2018-02-12T03:16:19.872Z,99601.53
2018-02-12T03:18:47.280Z,99601.91
2018-02-12T03:21:14.724Z,99595.38
2018-02-12T03:23:42.184Z,99604.53
2018-02-12T03:26:09.597Z,99610.06
2018-02-12T03:28:37.020Z,99615.12
2018-02-12T03:31:04.461Z,99616.82
2018-02-12T03:33:31.916Z,99617.40
2018-02-12T03:35:59.327Z,99614.70
2018-02-12T03:38:26.779Z,99622.27
2018-02-12T03:40:54.206Z,99621.38
2018-02-12T03:43:21.652Z,99623.02
2018-02-12T03:45:49.116Z,99629.75
2018-02-12T03:48:16.549Z,99631.75
2018-02-12T03:50:43.964Z,99634.29
2018-02-12T03:53:11.428Z,99638.88
2018-02-12T03:55:38.889Z,99641.81
2018-02-12T03:58:06.299Z,99643.06
2018-02-12T04:00:33.709Z,99645.64
2018-02-12T04:03:01.141Z,99641.31
2018-02-12T04:05:28.605Z,99654.08
2018-02-12T04:07:56.025Z,99649.30
2018-02-12T04:10:23.460Z,99655.63
2018-02-12T04:12:50.929Z,99664.09
2018-02-12T04:15:18.387Z,99665.56
2018-02-12T04:17:45.883Z,99664.86
2018-02-12T04:20:13.316Z,99663.31
2018-02-12T04:22:40.740Z,99672.98
2018-02-12T04:25:08.160Z,99675.26
2018-02-12T04:27:35.604Z,99681.89
2018-02-12T04:30:03.005Z,99679.05
2018-02-12T04:32:30.444Z,99676.67
2018-02-12T04:34:57.872Z,99686.81
2018-02-12T04:37:25.284Z,99690.98
2018-02-12T04:39:52.755Z,99689.31
2018-02-12T04:42:20.188Z,99686.26
2018-02-12T04:44:47.658Z,99691.07
2018-02-12T04:47:15.076Z,99692.38
2018-02-12T04:49:42.511Z,99707.02
2018-02-12T04:52:09.936Z,99704.90
2018-02-12T04:54:37.376Z,99692.61
2018-02-12T04:57:04.789Z,99695.56
2018-02-12T04:59:32.217Z,99702.05
2018-02-12T05:01:59.640Z,99706.50
2018-02-12T05:04:27.107Z,99702.37
2018-02-12T05:06:54.577Z,99700.00
2018-02-12T05:09:22.020Z,99707.59
2018-02-12T05:11:49.482Z,99709.01
2018-02-12T05:14:16.917Z,99713.27
2018-02-12T05:16:44.400Z,99716.67
2018-02-12T05:19:11.816Z,99714.62
2018-02-12T05:21:39.244Z,99729.31
2018-02-12T05:24:06.672Z,99721.36
2018-02-12T05:26:34.101Z,99724.44
2018-02-12T05:29:01.576Z,99739.64
2018-02-12T05:31:29.009Z,99734.05
2018-02-12T05:33:56.444Z,99733.80
2018-02-12T05:36:23.902Z,99739.84
2018-02-12T05:38:51.324Z,99747.72
2018-02-12T05:41:18.752Z,99740.53
2018-02-12T05:43:46.165Z,99748.27
2018-02-12T05:46:13.592Z,99751.06
2018-02-12T05:48:41.024Z,99762.25
2018-02-12T05:51:08.472Z,99758.23
2018-02-12T05:53:35.924Z,99766.42
2018-02-12T05:56:03.344Z,99772.02
2018-02-12T05:58:30.809Z,99773.44
2018-02-12T06:00:58.228Z,99778.52
2018-02-12T06:03:25.676Z,99773.69
2018-02-12T06:05:56.582Z,99780.36
2018-02-12T06:08:23.996Z,99776.06
2018-02-12T06:10:51.443Z,99783.12
2018-02-12T06:13:18.893Z,99784.86
2018-02-12T06:15:46.328Z,99782.50
2018-02-12T06:18:13.743Z,99789.48
2018-02-12T06:20:41.152Z,99804.19
2018-02-12T06:23:08.582Z,99807.07
2018-02-12T06:25:36.071Z,99810.59
2018-02-12T06:28:03.464Z,99808.92
2018-02-12T06:30:30.896Z,99817.94
2018-02-12T06:32:58.328Z,99823.78
2018-02-12T06:35:25.797Z,99826.32
2018-02-12T06:37:53.204Z,99830.53
2018-02-12T06:40:20.644Z,99833.64
2018-02-12T06:42:48.108Z,99836.67
2018-02-12T06:45:15.599Z,99843.73
2018-02-12T06:47:43.044Z,99845.87
2018-02-12T06:50:10.493Z,99849.19
2018-02-12T06:52:37.917Z,99849.19
2018-02-12T06:55:05.340Z,99848.27
2018-02-12T06:57:32.816Z,99855.34
2018-02-12T07:00:00.345Z,99857.32
2018-02-12T07:02:27.837Z,99855.53
2018-02-12T07:04:55.252Z,99865.53
2018-02-12T07:07:22.710Z,99874.73
2018-02-12T07:09:50.144Z,99872.83
2018-02-12T07:12:17.691Z,99878.83
2018-02-12T07:14:45.349Z,99878.75
2018-02-12T07:17:12.789Z,99875.61
2018-02-12T07:19:40.213Z,99888.59
2018-02-12T07:22:07.645Z,99894.61
2018-02-12T07:24:35.127Z,99903.66
2018-02-12T07:27:02.540Z,99904.55
2018-02-12T07:29:32.756Z,99902.30
2018-02-12T07:32:00.226Z,99905.02
2018-02-12T07:34:27.665Z,99913.74
2018-02-12T07:36:55.112Z,99910.51
2018-02-12T07:39:22.610Z,99909.58
2018-02-12T07:41:50.061Z,99911.75
2018-02-12T07:44:17.481Z,99919.56
2018-02-12T07:46:44.901Z,99918.28
2018-02-12T07:49:12.333Z,99927.36
2018-02-12T07:51:39.909Z,99934.73
2018-02-12T07:54:07.387Z,99937.75
2018-02-12T07:56:34.797Z,99944.28
2018-02-12T07:59:02.242Z,99944.86
2018-02-12T08:01:29.758Z,99944.44
2018-02-12T08:03:57.180Z,99956.19
2018-02-12T08:06:24.666Z,99949.52
2018-02-12T08:08:52.079Z,99965.55
2018-02-12T08:11:19.521Z,99966.25
2018-02-12T08:13:47.636Z,99967.36
2018-02-12T08:16:15.666Z,99972.47
2018-02-12T08:18:43.104Z,99976.13
2018-02-12T08:21:10.598Z,99977.48
2018-02-12T08:23:38.024Z,99973.82
2018-02-12T08:26:05.504Z,99978.51
2018-02-12T08:28:32.940Z,99983.27
2018-02-12T08:31:00.370Z,99981.69
2018-02-12T08:33:27.812Z,99984.55
2018-02-12T08:35:55.289Z,99986.34
2018-02-12T08:38:22.784Z,99994.66
2018-02-12T08:40:50.228Z,100004.08
2018-02-12T08:43:17.653Z,99999.95
2018-02-12T08:45:45.170Z,100005.46
2018-02-12T08:48:12.600Z,100005.30
2018-02-12T08:50:40.086Z,100007.89
2018-02-12T08:53:07.503Z,100017.44
2018-02-12T08:55:34.928Z,100019.41
2018-02-12T08:58:02.404Z,100023.14
2018-02-12T09:00:29.844Z,100021.19
2018-02-12T09:02:57.332Z,100029.26
2018-02-12T09:05:24.738Z,100038.81
2018-02-12T09:07:52.184Z,100044.98
2018-02-12T09:10:19.588Z,100044.53
2018-02-12T09:12:47.008Z,100047.62
2018-02-12T09:15:14.452Z,100046.56
2018-02-12T09:17:41.894Z,100052.08
2018-02-12T09:20:09.349Z,100057.30
2018-02-12T09:22:37.750Z,100052.72
2018-02-12T09:25:05.169Z,100059.00
2018-02-12T09:27:32.667Z,100056.70
2018-02-12T09:30:00.121Z,100067.09
2018-02-12T09:32:27.588Z,100066.56
2018-02-12T09:34:55.133Z,100069.84
2018-02-12T09:37:22.538Z,100078.97
2018-02-12T09:39:50.040Z,100073.00
2018-02-12T09:42:17.470Z,100076.05
2018-02-12T09:44:44.919Z,100087.30
2018-02-12T09:47:12.404Z,100082.84
2018-02-12T09:49:39.833Z,100081.89
2018-02-12T09:52:07.311Z,100088.14
2018-02-12T09:54:34.701Z,100090.02
2018-02-12T09:57:02.121Z,100092.03
2018-02-12T09:59:29.550Z,100107.38
2018-02-12T10:01:56.980Z,100105.16
2018-02-12T10:04:24.400Z,100105.45
2018-02-12T10:06:51.812Z,100112.62
2018-02-12T10:09:19.229Z,100113.94
2018-02-12T10:11:46.664Z,100106.70
2018-02-12T10:14:14.086Z,100121.72
2018-02-12T10:16:41.492Z,100117.03
2018-02-12T10:19:09.286Z,100125.08
2018-02-12T10:21:36.693Z,100130.55
2018-02-12T10:24:04.109Z,100138.24
2018-02-12T10:26:31.527Z,100135.58
2018-02-12T10:28:58.937Z,100136.98
2018-02-12T10:31:26.352Z,100140.58
2018-02-12T10:33:53.792Z,100141.27
2018-02-12T10:36:21.249Z,100148.05
2018-02-12T10:38:48.661Z,100152.63
2018-02-12T10:41:16.159Z,100148.50
2018-02-12T10:43:43.622Z,100144.91
2018-02-12T10:46:11.076Z,100152.14
2018-02-12T10:48:38.510Z,100147.67
2018-02-12T10:51:05.995Z,100152.40
2018-02-12T10:53:33.419Z,100158.67
2018-02-12T10:56:00.865Z,100155.77
2018-02-12T10:58:28.337Z,100165.55
2018-02-12T11:00:55.749Z,100160.41
2018-02-12T11:03:23.156Z,100155.00
2018-02-12T11:05:50.570Z,100166.48
2018-02-12T11:08:18.050Z,100176.29
2018-02-12T11:10:45.462Z,100168.17
2018-02-12T11:13:12.885Z,100167.11
2018-02-12T11:15:40.304Z,100172.06
2018-02-12T11:18:07.725Z,100170.25
2018-02-12T11:20:35.213Z,100173.56
2018-02-12T11:23:02.629Z,100170.62
2018-02-12T11:25:30.092Z,100169.88
2018-02-12T11:27:57.532Z,100169.42
2018-02-12T11:30:24.986Z,100175.22
2018-02-12T11:32:52.418Z,100170.20
2018-02-12T11:35:19.828Z,100169.94
2018-02-12T11:37:47.281Z,100175.60
2018-02-12T11:40:14.749Z,100172.48
2018-02-12T11:42:42.154Z,100170.91
2018-02-12T11:45:09.568Z,100170.98
2018-02-12T11:47:36.992Z,100169.92
2018-02-12T11:50:04.402Z,100176.21
2018-02-12T11:52:35.263Z,100177.01
2018-02-12T11:55:02.632Z,100178.35
2018-02-12T11:57:30.064Z,100175.91
2018-02-12T11:59:57.481Z,100178.05
2018-02-12T12:02:24.969Z,100179.56
2018-02-12T12:04:52.383Z,100180.16
2018-02-12T12:07:19.805Z,100181.89
2018-02-12T12:09:47.220Z,100177.65
2018-02-12T12:12:14.621Z,100174.96
2018-02-12T12:14:42.032Z,100179.78
2018-02-12T12:17:09.677Z,100186.20
2018-02-12T12:19:37.076Z,100188.05
2018-02-12T12:22:04.505Z,100177.59
2018-02-12T12:24:31.976Z,100185.17
2018-02-12T12:26:59.398Z,100186.77
2018-02-12T12:29:26.848Z,100184.11
2018-02-12T12:31:54.268Z,100193.86
2018-02-12T12:34:22.323Z,100190.87
2018-02-12T12:36:49.712Z,100194.98
2018-02-12T12:39:17.140Z,100192.84
2018-02-12T12:41:44.569Z,100196.05
2018-02-12T12:44:12.096Z,100194.99
2018-02-12T12:46:39.556Z,100191.30
2018-02-12T12:49:06.980Z,100196.47
2018-02-12T12:51:34.457Z,100192.13
2018-02-12T12:54:01.887Z,100202.80
2018-02-12T12:56:29.321Z,100196.46
2018-02-12T12:58:56.736Z,100203.77
2018-02-12T13:01:24.188Z,100201.62
2018-02-12T13:03:51.597Z,100190.11
2018-02-12T13:06:24.752Z,100195.07
2018-02-12T13:08:52.157Z,100204.00
2018-02-12T13:11:19.602Z,100195.68
2018-02-12T13:13:47.019Z,100207.21
2018-02-12T13:16:14.438Z,100214.81
2018-02-12T13:18:41.880Z,100207.63
2018-02-12T13:21:09.293Z,100206.80
2018-02-12T13:23:36.741Z,100209.02
2018-02-12T13:26:04.144Z,100203.89
2018-02-12T13:28:31.558Z,100200.80
2018-02-12T13:30:58.995Z,100205.55
2018-02-12T13:33:26.400Z,100204.31
2018-02-12T13:35:53.853Z,100211.35
2018-02-12T13:38:21.250Z,100203.25
2018-02-12T13:40:48.658Z,100206.79
2018-02-12T13:43:16.073Z,100203.48
2018-02-12T13:45:43.483Z,100208.58
2018-02-12T13:48:10.917Z,100201.87
2018-02-12T13:50:38.325Z,100208.67
2018-02-12T13:53:05.748Z,100198.83
2018-02-12T13:55:33.165Z,100209.04
2018-02-12T13:58:00.573Z,100202.33
2018-02-12T14:00:27.984Z,100203.81
2018-02-12T14:02:55.394Z,100205.98
2018-02-12T14:05:22.852Z,100208.80
2018-02-12T14:07:50.276Z,100206.45
2018-02-12T14:10:17.705Z,100203.98
2018-02-12T14:12:45.425Z,100193.53
2018-02-12T14:15:12.880Z,100198.48
2018-02-12T14:17:40.309Z,100203.45
2018-02-12T14:20:07.724Z,100197.66
2018-02-12T14:22:35.184Z,100199.23
2018-02-12T14:25:13.065Z,100200.21
2018-02-12T14:27:40.509Z,100200.59
2018-02-12T14:30:13.501Z,100205.30
2018-02-12T14:32:40.943Z,100204.41
2018-02-12T14:35:08.380Z,100210.97
2018-02-12T14:37:35.857Z,100212.94
2018-02-12T14:40:03.288Z,100214.45
2018-02-12T14:42:31.204Z,100215.91
2018-02-12T14:44:58.682Z,100212.12
2018-02-12T14:47:26.080Z,100216.51
2018-02-12T14:49:53.485Z,100225.66
2018-02-12T14:52:20.953Z,100230.02
2018-02-12T14:54:48.377Z,100230.86
2018-02-12T14:57:15.799Z,100234.67
2018-02-12T14:59:43.253Z,100255.99
2018-02-12T15:02:10.672Z,100266.78
2018-02-12T15:04:38.102Z,100259.77
2018-02-12T15:07:05.549Z,100267.69
2018-02-12T15:09:32.951Z,100280.17
2018-02-12T15:12:00.414Z,100274.27
2018-02-12T15:14:27.839Z,100264.55
2018-02-12T15:16:55.304Z,100268.80
2018-02-12T15:19:22.777Z,100269.80
2018-02-12T15:21:50.217Z,100275.39
2018-02-12T15:24:17.645Z,100267.74
2018-02-12T15:26:48.875Z,100272.11
2018-02-12T15:29:21.592Z,100272.27
2018-02-12T15:31:52.755Z,100275.58
2018-02-12T15:37:19.104Z,100284.41
2018-02-12T15:39:47.109Z,100284.80
2018-02-12T15:42:14.532Z,100282.57
2018-02-12T15:44:41.980Z,100288.41
2018-02-12T15:47:09.591Z,100292.45
2018-02-12T15:49:37.054Z,100290.31
2018-02-12T15:52:05.326Z,100290.98
2018-02-12T15:54:32.772Z,100293.11
2018-02-12T15:57:00.199Z,100292.78
2018-02-12T15:59:27.629Z,100293.61
2018-02-12T16:01:55.136Z,100282.40
2018-02-12T16:04:22.589Z,100284.16
2018-02-12T16:06:50.040Z,100286.38
2018-02-12T16:09:17.504Z,100291.55
2018-02-12T16:11:44.919Z,100294.18
2018-02-12T16:14:12.372Z,100295.73
2018-02-12T16:16:39.818Z,100299.41
2018-02-12T16:19:07.327Z,100301.23
2018-02-12T16:21:34.759Z,100295.69
2018-02-12T16:24:02.200Z,100302.69
2018-02-12T16:26:29.683Z,100302.92
2018-02-12T16:28:57.128Z,100302.02
2018-02-12T16:31:24.627Z,100303.33
2018-02-12T16:33:52.029Z,100300.79
2018-02-12T16:36:19.472Z,100302.81
2018-02-12T16:38:46.912Z,100309.84
2018-02-12T16:41:14.353Z,100306.78
2018-02-12T16:43:41.817Z,100309.41
2018-02-12T16:46:09.229Z,100312.34
2018-02-12T16:48:36.676Z,100308.11
2018-02-12T16:51:04.131Z,100310.17
2018-02-12T16:53:31.558Z,100313.78
2018-02-12T16:55:59.003Z,100313.88
2018-02-12T16:58:26.437Z,100311.51
2018-02-12T17:00:53.857Z,100319.80
2018-02-12T17:03:25.165Z,100311.87
2018-02-12T17:05:52.608Z,100315.02
2018-02-12T17:08:20.060Z,100312.72
2018-02-12T17:10:47.474Z,100315.88
2018-02-12T17:13:14.908Z,100314.47
2018-02-12T17:15:42.359Z,100324.09
2018-02-12T17:18:09.768Z,100328.22
2018-02-12T17:20:37.252Z,100326.38
2018-02-12T17:23:04.673Z,100330.36
2018-02-12T17:25:32.107Z,100333.11
2018-02-12T17:27:59.528Z,100334.64
2018-02-12T17:30:26.964Z,100334.53
2018-02-12T17:32:54.467Z,100334.43
2018-02-12T17:35:21.920Z,100338.02
2018-02-12T17:37:49.340Z,100338.13
2018-02-12T17:40:16.803Z,100341.09
2018-02-12T17:42:44.208Z,100347.53
2018-02-12T17:45:15.422Z,100336.34
2018-02-12T17:47:42.833Z,100347.11
2018-02-12T17:50:10.282Z,100347.58
2018-02-12T17:52:37.696Z,100342.53
2018-02-12T17:55:05.169Z,100345.55
2018-02-12T17:57:32.639Z,100348.13
2018-02-12T18:00:00.694Z,100348.02
2018-02-12T18:02:28.150Z,100350.52
2018-02-12T18:04:55.566Z,100351.05
2018-02-12T18:07:22.984Z,100352.44
2018-02-12T18:09:50.556Z,100360.13
2018-02-12T18:12:18.026Z,100357.81
2018-02-12T18:14:46.724Z,100357.70
2018-02-12T18:17:15.564Z,100363.59
2018-02-12T18:19:42.989Z,100355.71
2018-02-12T18:22:10.413Z,100356.09
2018-02-12T18:24:37.865Z,100354.53
2018-02-12T18:27:05.284Z,100357.05
2018-02-12T18:29:32.728Z,100359.14
2018-02-12T18:32:00.156Z,100357.05
2018-02-12T18:34:27.651Z,100366.13
2018-02-12T18:36:55.052Z,100364.45
2018-02-12T18:39:22.563Z,100366.30
2018-02-12T18:41:50.148Z,100364.88
2018-02-12T18:44:17.554Z,100372.00
2018-02-12T18:46:44.972Z,100372.25
2018-02-12T18:49:12.396Z,100368.42
2018-02-12T18:51:39.833Z,100369.20
2018-02-12T18:54:07.256Z,100370.90
2018-02-12T18:56:34.680Z,100371.55
2018-02-12T18:59:02.105Z,100374.52
2018-02-12T19:01:29.527Z,100377.98
2018-02-12T19:04:00.614Z,100374.75
2018-02-12T19:06:28.032Z,100378.11
2018-02-12T19:08:55.669Z,100380.47
2018-02-12T19:11:23.103Z,100379.23
2018-02-12T19:13:50.520Z,100386.66
2018-02-12T19:16:17.966Z,100375.83
2018-02-12T19:18:45.769Z,100383.72
2018-02-12T19:21:13.194Z,100385.54
2018-02-12T19:23:40.648Z,100384.00
2018-02-12T19:26:08.050Z,100385.11
2018-02-12T19:28:41.997Z,100384.79
2018-02-12T19:31:10.397Z,100387.60
2018-02-12T19:33:37.821Z,100385.02
2018-02-12T19:36:08.393Z,100387.62
2018-02-12T19:38:35.870Z,100392.22
2018-02-12T19:41:03.341Z,100388.24
2018-02-12T19:43:30.762Z,100390.53
2018-02-12T19:45:58.190Z,100391.00
2018-02-12T19:48:25.605Z,100393.79
2018-02-12T19:50:53.025Z,100390.82
2018-02-12T19:53:20.468Z,100392.72
2018-02-12T19:55:47.884Z,100398.14
2018-02-12T19:58:15.303Z,100396.79
2018-02-12T20:00:42.867Z,100394.30
2018-02-12T20:03:10.283Z,100389.98
2018-02-12T20:05:37.728Z,100393.25
2018-02-12T20:08:05.158Z,100392.02
2018-02-12T20:10:32.611Z,100386.91
2018-02-12T20:13:00.000Z,100392.66
2018-02-12T20:15:27.812Z,100391.31
2018-02-12T20:17:55.276Z,100402.35
2018-02-12T20:20:22.700Z,100401.94
2018-02-12T20:22:50.119Z,100397.88
2018-02-12T20:25:17.580Z,100395.97
2018-02-12T20:27:44.992Z,100402.31
2018-02-12T20:30:12.458Z,100399.27
2018-02-12T20:32:39.860Z,100407.14
2018-02-12T20:35:07.279Z,100404.56
2018-02-12T20:37:35.140Z,100405.61
2018-02-12T20:40:02.533Z,100403.25
2018-02-12T20:42:30.008Z,100403.97
2018-02-12T20:44:57.447Z,100398.64
2018-02-12T20:47:26.894Z,100398.30
2018-02-12T20:49:54.325Z,100406.37
2018-02-12T20:52:21.748Z,100406.59
2018-02-12T20:54:49.272Z,100409.97
2018-02-12T20:57:16.708Z,100407.17
2018-02-12T20:59:44.144Z,100410.48
2018-02-12T21:02:11.564Z,100407.31
2018-02-12T21:04:38.986Z,100411.16
2018-02-12T21:07:06.412Z,100414.62
2018-02-12T21:09:33.869Z,100412.85
2018-02-12T21:12:01.292Z,100411.75
2018-02-12T21:14:28.716Z,100412.98
2018-02-12T21:16:56.166Z,100413.82
2018-02-12T21:19:23.584Z,100410.10
2018-02-12T21:21:51.489Z,100419.36
2018-02-12T21:24:18.913Z,100407.09
2018-02-12T21:26:46.359Z,100412.97
2018-02-12T21:29:17.695Z,100408.48
2018-02-12T21:31:45.115Z,100407.59
2018-02-12T21:34:12.535Z,100405.52
2018-02-12T21:36:39.981Z,100410.27
2018-02-12T21:39:07.778Z,100409.30
2018-02-12T21:41:35.215Z,100410.69
2018-02-12T21:44:02.704Z,100410.31
2018-02-12T21:46:30.124Z,100412.55
2018-02-12T21:48:57.556Z,100414.15
2018-02-12T21:51:25.007Z,100416.84
2018-02-12T21:53:52.417Z,100422.09
2018-02-12T21:56:20.114Z,100417.53
2018-02-12T21:58:47.544Z,100417.66
2018-02-12T22:01:14.960Z,100419.48
2018-02-12T22:03:42.780Z,100411.81
2018-02-12T22:06:10.198Z,100414.20
2018-02-12T22:08:37.631Z,100405.60
2018-02-12T22:11:05.065Z,100412.89
2018-02-12T22:13:32.494Z,100413.22
2018-02-12T22:15:59.909Z,100410.73
2018-02-12T22:18:40.949Z,100411.83
2018-02-12T22:21:08.384Z,100400.53
2018-02-12T22:23:35.808Z,100401.72
2018-02-12T22:26:03.251Z,100408.98
2018-02-12T22:28:30.714Z,100409.03
2018-02-12T22:30:58.157Z,100398.38
2018-02-12T22:33:25.575Z,100401.64
2018-02-12T22:35:53.042Z,100402.78
2018-02-12T22:38:20.457Z,100402.45
2018-02-12T22:40:47.886Z,100398.52
2018-02-12T22:43:15.317Z,100392.41
2018-02-12T22:45:42.761Z,100392.41
2018-02-12T22:48:10.170Z,100402.40
2018-02-12T22:50:37.581Z,100400.88
2018-02-12T22:53:05.001Z,100399.64
2018-02-12T22:55:32.429Z,100404.05
2018-02-12T22:57:59.878Z,100399.09
2018-02-12T23:00:27.329Z,100402.45
2018-02-12T23:02:54.745Z,100401.27
2018-02-12T23:05:22.153Z,100400.92
2018-02-12T23:07:49.603Z,100394.11
2018-02-12T23:10:17.116Z,100396.66
2018-02-12T23:12:44.562Z,100395.55
2018-02-12T23:15:17.488Z,100393.34
2018-02-12T23:17:44.922Z,100399.09
2018-02-12T23:20:12.330Z,100399.83
2018-02-12T23:22:39.752Z,100401.30
2018-02-12T23:25:07.184Z,100403.92
2018-02-12T23:27:34.633Z,100397.79
2018-02-12T23:30:02.053Z,100397.31
2018-02-12T23:32:29.461Z,100396.77
2018-02-12T23:34:56.877Z,100399.56
2018-02-12T23:37:24.305Z,100399.77
2018-02-12T23:39:51.972Z,100393.56
2018-02-12T23:42:19.423Z,100400.67
2018-02-12T23:44:46.837Z,100401.13
2018-02-12T23:47:14.257Z,100399.77
2018-02-12T23:49:41.687Z,100400.45
2018-02-12T23:52:09.177Z,100397.28
2018-02-12T23:54:36.625Z,100401.89
2018-02-12T23:57:04.045Z,100395.34
2018-02-12T23:59:31.485Z,100392.55
